createdAt,value
2018-06-05T00:00:56.400Z,19.41
2018-06-05T00:03:26.277Z,19.31
2018-06-05T00:05:56.233Z,19.25
2018-06-05T00:08:26.146Z,19.23
2018-06-05T00:10:56.085Z,19.23
2018-06-05T00:13:25.757Z,19.26
2018-06-05T00:15:55.678Z,19.31
2018-06-05T00:18:25.512Z,19.31
2018-06-05T00:20:55.061Z,19.34
2018-06-05T00:23:24.911Z,19.22
2018-06-05T00:25:54.851Z,19.26
2018-06-05T00:28:24.664Z,19.42
2018-06-05T00:30:54.304Z,19.40
2018-06-05T00:33:24.497Z,19.29
2018-06-05T00:35:54.203Z,19.24
2018-06-05T00:38:24.106Z,19.28
2018-06-05T00:40:53.890Z,19.27
2018-06-05T00:43:23.667Z,19.31
2018-06-05T00:45:54.124Z,19.38
2018-06-05T00:48:24.065Z,19.47
2018-06-05T00:50:54.068Z,19.51
2018-06-05T00:53:23.711Z,19.59
2018-06-05T00:55:53.470Z,19.62
2018-06-05T00:58:23.183Z,19.65
2018-06-05T01:00:52.965Z,19.67
2018-06-05T01:03:22.985Z,19.68
2018-06-05T01:05:52.803Z,19.69
2018-06-05T01:08:22.675Z,19.64
2018-06-05T01:10:52.761Z,19.61
2018-06-05T01:13:22.335Z,19.59
2018-06-05T01:15:52.073Z,19.55
2018-06-05T01:18:22.079Z,19.49
2018-06-05T01:20:51.835Z,19.44
2018-06-05T01:23:27.959Z,19.41
2018-06-05T01:25:57.551Z,19.37
2018-06-05T01:28:27.220Z,19.30
2018-06-05T01:30:57.074Z,19.16
2018-06-05T01:33:26.784Z,19.06
2018-06-05T01:35:56.602Z,19.01
2018-06-05T01:38:26.617Z,19.00
2018-06-05T01:40:56.548Z,18.98
2018-06-05T01:43:26.342Z,18.97
2018-06-05T01:45:56.871Z,18.98
2018-06-05T01:48:26.808Z,19.02
2018-06-05T01:50:56.578Z,19.04
2018-06-05T01:53:27.449Z,19.08
2018-06-05T01:55:57.360Z,19.11
2018-06-05T01:58:27.102Z,19.14
2018-06-05T02:00:57.015Z,19.12
2018-06-05T02:03:26.695Z,19.10
2018-06-05T02:05:56.360Z,19.07
2018-06-05T02:08:26.319Z,19.06
2018-06-05T02:10:56.117Z,19.05
2018-06-05T02:13:25.851Z,19.04
2018-06-05T02:15:55.749Z,19.06
2018-06-05T02:18:25.501Z,19.03
2018-06-05T02:20:56.846Z,18.99
2018-06-05T02:23:26.552Z,18.97
2018-06-05T02:25:56.423Z,18.93
2018-06-05T02:28:26.461Z,18.87
2018-06-05T02:30:59.661Z,18.83
2018-06-05T02:33:29.594Z,18.79
2018-06-05T02:35:59.424Z,18.74
2018-06-05T02:38:29.400Z,18.70
2018-06-05T02:40:59.197Z,18.65
2018-06-05T02:43:28.968Z,18.63
2018-06-05T02:45:58.948Z,18.60
2018-06-05T02:48:28.652Z,18.60
2018-06-05T02:50:58.440Z,18.58
2018-06-05T02:53:28.235Z,18.58
2018-06-05T02:55:58.279Z,18.57
2018-06-05T02:58:28.292Z,18.57
2018-06-05T03:00:57.876Z,18.62
2018-06-05T03:05:55.557Z,18.64
2018-06-05T03:08:25.323Z,18.64
2018-06-05T03:10:56.420Z,18.66
2018-06-05T03:13:25.979Z,18.71
2018-06-05T03:15:55.967Z,18.77
2018-06-05T03:18:25.789Z,18.83
2018-06-05T03:20:55.889Z,18.85
2018-06-05T03:23:25.612Z,18.88
2018-06-05T03:25:56.536Z,18.88
2018-06-05T03:28:26.295Z,18.86
2018-06-05T03:30:56.559Z,18.83
2018-06-05T03:33:26.632Z,18.83
2018-06-05T03:35:57.346Z,18.81
2018-06-05T03:38:27.276Z,18.79
2018-06-05T03:40:57.200Z,18.75
2018-06-05T03:43:27.032Z,18.72
2018-06-05T03:45:56.959Z,18.69
2018-06-05T03:48:26.799Z,18.65
2018-06-05T03:50:56.568Z,18.64
2018-06-05T03:53:26.433Z,18.66
2018-06-05T03:55:56.285Z,18.67
2018-06-05T03:58:25.945Z,18.66
2018-06-05T04:00:56.126Z,18.68
2018-06-05T04:03:25.839Z,18.69
2018-06-05T04:05:55.651Z,18.72
2018-06-05T04:08:25.479Z,18.78
2018-06-05T04:10:55.182Z,18.79
2018-06-05T04:13:25.199Z,18.78
2018-06-05T04:15:54.893Z,18.77
2018-06-05T04:18:24.690Z,18.79
2018-06-05T04:20:54.575Z,18.81
2018-06-05T04:23:25.287Z,18.82
2018-06-05T04:25:55.492Z,18.82
2018-06-05T04:28:25.427Z,18.83
2018-06-05T04:30:55.463Z,18.84
2018-06-05T04:33:25.098Z,18.88
2018-06-05T04:35:56.081Z,18.91
2018-06-05T04:38:26.178Z,18.94
2018-06-05T04:40:56.370Z,18.95
2018-06-05T04:43:26.569Z,19.01
2018-06-05T04:45:56.630Z,19.07
2018-06-05T04:48:26.613Z,19.09
2018-06-05T04:50:56.531Z,19.14
2018-06-05T04:53:26.522Z,19.17
2018-06-05T04:55:56.387Z,19.24
2018-06-05T04:58:26.064Z,19.25
2018-06-05T05:00:55.833Z,19.26
2018-06-05T05:03:25.836Z,19.30
2018-06-05T05:05:55.496Z,19.34
2018-06-05T05:08:25.580Z,19.39
2018-06-05T05:10:55.650Z,19.43
2018-06-05T05:13:25.498Z,19.48
2018-06-05T05:15:55.390Z,19.53
2018-06-05T05:18:25.233Z,19.58
2018-06-05T05:20:55.023Z,19.63
2018-06-05T05:23:25.082Z,19.67
2018-06-05T05:25:55.462Z,19.72
2018-06-05T05:28:25.304Z,19.80
2018-06-05T05:30:55.308Z,19.90
2018-06-05T05:33:25.100Z,19.94
2018-06-05T05:35:54.940Z,20.02
2018-06-05T05:38:24.826Z,20.11
2018-06-05T05:40:54.571Z,20.12
2018-06-05T05:43:24.611Z,20.14
2018-06-05T05:45:54.313Z,20.26
2018-06-05T05:48:24.235Z,20.32
2018-06-05T05:50:54.237Z,20.38
2018-06-05T05:53:23.974Z,20.49
2018-06-05T05:55:53.894Z,20.60
2018-06-05T05:58:23.585Z,20.69
2018-06-05T06:00:54.258Z,20.71
2018-06-05T06:03:25.226Z,20.80
2018-06-05T06:05:55.971Z,20.86
2018-06-05T06:08:25.867Z,20.93
2018-06-05T06:10:55.853Z,20.98
2018-06-05T06:13:25.902Z,20.97
2018-06-05T06:15:55.651Z,20.98
2018-06-05T06:18:25.457Z,21.01
2018-06-05T06:20:55.546Z,21.02
2018-06-05T06:23:25.387Z,21.07
2018-06-05T06:25:55.663Z,21.18
2018-06-05T06:28:25.698Z,21.20
2018-06-05T06:30:55.517Z,21.39
2018-06-05T06:33:25.356Z,21.64
2018-06-05T06:35:55.191Z,21.79
2018-06-05T06:38:25.249Z,21.74
2018-06-05T06:40:55.930Z,21.79
2018-06-05T06:43:25.631Z,21.70
2018-06-05T06:45:55.532Z,21.71
2018-06-05T06:48:25.371Z,21.81
2018-06-05T06:50:55.376Z,21.85
2018-06-05T06:53:25.173Z,21.88
2018-06-05T06:55:55.115Z,21.83
2018-06-05T06:58:24.717Z,21.85
2018-06-05T07:00:54.550Z,21.93
2018-06-05T07:03:24.449Z,21.87
2018-06-05T07:05:54.250Z,21.87
2018-06-05T07:08:24.100Z,21.85
2018-06-05T07:10:54.159Z,21.80
2018-06-05T07:13:23.912Z,21.93
2018-06-05T07:15:54.692Z,22.03
2018-06-05T07:18:24.552Z,22.07
2018-06-05T07:20:55.353Z,21.97
2018-06-05T07:23:25.829Z,21.91
2018-06-05T07:25:56.017Z,21.81
2018-06-05T07:28:25.893Z,21.83
2018-06-05T07:30:56.250Z,21.99
2018-06-05T07:33:26.270Z,22.10
2018-06-05T07:35:56.090Z,22.16
2018-06-05T07:38:25.903Z,22.15
2018-06-05T07:40:56.022Z,22.06
2018-06-05T07:43:25.630Z,22.18
2018-06-05T07:45:55.522Z,22.22
2018-06-05T07:48:25.383Z,22.35
2018-06-05T07:50:55.089Z,22.48
2018-06-05T07:53:24.875Z,22.54
2018-06-05T07:55:54.547Z,22.50
2018-06-05T07:58:24.290Z,22.47
2018-06-05T08:00:54.051Z,22.44
2018-06-05T08:03:23.942Z,22.61
2018-06-05T08:05:53.780Z,22.59
2018-06-05T08:08:23.392Z,22.56
2018-06-05T08:10:53.221Z,22.66
2018-06-05T08:13:23.033Z,22.81
2018-06-05T08:15:52.696Z,22.78
2018-06-05T08:18:22.685Z,22.69
2018-06-05T08:20:52.468Z,22.63
2018-06-05T08:23:22.375Z,22.74
2018-06-05T08:25:52.529Z,22.88
2018-06-05T08:28:22.521Z,22.98
2018-06-05T08:30:52.580Z,22.89
2018-06-05T08:33:22.556Z,22.94
2018-06-05T08:35:52.369Z,23.17
2018-06-05T08:38:22.057Z,23.10
2018-06-05T08:40:52.174Z,23.00
2018-06-05T08:43:21.944Z,23.09
2018-06-05T08:45:51.594Z,23.24
2018-06-05T08:48:21.474Z,23.11
2018-06-05T08:50:51.369Z,23.18
2018-06-05T08:53:21.895Z,23.08
2018-06-05T08:55:52.626Z,23.22
2018-06-05T08:58:22.349Z,23.05
2018-06-05T09:00:52.137Z,22.96
2018-06-05T09:03:22.081Z,23.12
2018-06-05T09:05:52.019Z,23.04
2018-06-05T09:08:22.028Z,22.88
2018-06-05T09:10:52.250Z,23.01
2018-06-05T09:13:22.161Z,23.13
2018-06-05T09:15:52.010Z,23.03
2018-06-05T09:18:22.014Z,23.08
2018-06-05T09:20:51.965Z,23.13
2018-06-05T09:23:21.739Z,23.28
2018-06-05T09:25:51.540Z,23.33
2018-06-05T09:28:21.467Z,23.39
2018-06-05T09:30:51.430Z,23.46
2018-06-05T09:33:21.138Z,23.47
2018-06-05T09:35:51.394Z,23.51
2018-06-05T09:38:21.310Z,23.54
2018-06-05T09:40:51.035Z,23.60
2018-06-05T09:43:20.627Z,23.46
2018-06-05T09:45:50.786Z,23.69
2018-06-05T09:48:20.618Z,23.72
2018-06-05T09:50:50.735Z,23.77
2018-06-05T09:53:21.275Z,23.95
2018-06-05T09:55:51.714Z,24.12
2018-06-05T09:58:21.916Z,24.30
2018-06-05T10:00:52.170Z,24.64
2018-06-05T10:03:22.737Z,24.66
2018-06-05T10:05:53.160Z,24.63
2018-06-05T10:08:23.393Z,24.69
2018-06-05T10:10:53.828Z,24.89
2018-06-05T10:13:23.876Z,24.98
2018-06-05T10:15:54.155Z,25.02
2018-06-05T10:18:24.716Z,24.84
2018-06-05T10:20:55.097Z,24.54
2018-06-05T10:23:25.517Z,24.55
2018-06-05T10:25:55.659Z,24.75
2018-06-05T10:28:25.928Z,24.92
2018-06-05T10:30:56.388Z,25.19
2018-06-05T10:33:26.521Z,25.23
2018-06-05T10:35:56.763Z,25.20
2018-06-05T10:38:26.854Z,25.25
2018-06-05T10:40:56.920Z,24.98
2018-06-05T10:43:28.087Z,25.02
2018-06-05T10:45:58.299Z,25.04
2018-06-05T10:48:28.508Z,25.35
2018-06-05T10:50:58.748Z,25.29
2018-06-05T10:53:28.860Z,25.44
2018-06-05T10:55:59.108Z,25.70
2018-06-05T10:58:29.130Z,25.59
2018-06-05T11:00:59.613Z,25.71
2018-06-05T11:03:29.884Z,25.87
2018-06-05T11:06:00.049Z,26.30
2018-06-05T11:08:30.282Z,26.60
2018-06-05T11:11:00.483Z,26.38
2018-06-05T11:13:30.869Z,26.62
2018-06-05T11:16:01.049Z,26.52
2018-06-05T11:18:31.318Z,26.59
2018-06-05T11:21:01.803Z,26.84
2018-06-05T11:23:34.871Z,27.28
2018-06-05T11:26:04.744Z,27.33
2018-06-05T11:28:34.618Z,27.32
2018-06-05T11:31:04.500Z,27.56
2018-06-05T11:33:34.212Z,27.63
2018-06-05T11:36:04.751Z,27.93
2018-06-05T11:38:34.566Z,28.15
2018-06-05T11:41:04.556Z,28.31
2018-06-05T11:43:34.425Z,28.37
2018-06-05T11:46:04.215Z,28.49
2018-06-05T11:48:34.339Z,28.41
2018-06-05T11:51:04.190Z,27.99
2018-06-05T11:53:34.050Z,27.95
2018-06-05T11:56:03.848Z,27.76
2018-06-05T11:58:33.810Z,27.88
2018-06-05T12:01:03.783Z,28.13
2018-06-05T12:03:33.725Z,28.46
2018-06-05T12:06:03.632Z,28.64
2018-06-05T12:08:33.404Z,29.04
2018-06-05T12:11:03.646Z,29.35
2018-06-05T12:13:33.486Z,29.70
2018-06-05T12:16:03.287Z,29.49
2018-06-05T12:18:33.020Z,29.98
2018-06-05T12:21:02.817Z,29.31
2018-06-05T12:23:32.490Z,28.75
2018-06-05T12:26:02.300Z,28.90
2018-06-05T12:28:32.194Z,28.83
2018-06-05T12:31:02.049Z,28.95
2018-06-05T12:33:32.019Z,29.37
2018-06-05T12:36:02.656Z,29.70
2018-06-05T12:38:33.076Z,29.72
2018-06-05T12:41:02.764Z,29.97
2018-06-05T12:43:32.815Z,30.17
2018-06-05T12:46:09.496Z,29.81
2018-06-05T12:48:40.384Z,29.28
2018-06-05T12:51:10.307Z,29.29
2018-06-05T12:53:41.377Z,28.99
2018-06-05T12:56:12.136Z,29.39
2018-06-05T12:58:41.799Z,29.59
2018-06-05T13:01:11.481Z,30.07
2018-06-05T13:03:41.271Z,30.37
2018-06-05T13:06:10.935Z,30.68
2018-06-05T13:08:40.846Z,29.45
2018-06-05T13:11:11.090Z,28.37
2018-06-05T13:13:40.893Z,28.87
2018-06-05T13:16:10.937Z,29.06
2018-06-05T13:18:40.600Z,29.33
2018-06-05T13:21:10.388Z,29.61
2018-06-05T13:23:40.203Z,29.91
2018-06-05T13:26:10.141Z,30.18
2018-06-05T13:28:40.107Z,30.20
2018-06-05T13:31:10.077Z,29.41
2018-06-05T13:33:39.843Z,28.63
2018-06-05T13:36:09.502Z,29.02
2018-06-05T13:38:41.509Z,29.41
2018-06-05T13:41:11.345Z,29.65
2018-06-05T13:43:41.745Z,29.93
2018-06-05T13:46:11.410Z,30.44
2018-06-05T13:48:41.267Z,30.42
2018-06-05T13:51:12.282Z,30.72
2018-06-05T13:53:42.201Z,30.62
2018-06-05T13:56:12.415Z,30.74
2018-06-05T13:58:42.215Z,30.20
2018-06-05T14:01:12.252Z,30.39
2018-06-05T14:03:42.046Z,30.50
2018-06-05T14:06:11.984Z,30.53
2018-06-05T14:08:41.709Z,30.90
2018-06-05T14:11:11.514Z,31.26
2018-06-05T14:13:41.206Z,31.42
2018-06-05T14:16:13.060Z,31.27
2018-06-05T14:18:42.858Z,31.29
2018-06-05T14:21:12.850Z,30.81
2018-06-05T14:23:42.882Z,30.41
2018-06-05T14:26:12.760Z,30.24
2018-06-05T14:28:42.522Z,30.43
2018-06-05T14:31:12.533Z,30.35
2018-06-05T14:33:42.385Z,30.22
2018-06-05T14:36:12.285Z,29.66
2018-06-05T14:38:42.105Z,29.61
2018-06-05T14:41:12.327Z,29.47
2018-06-05T14:43:42.320Z,29.71
2018-06-05T14:46:12.171Z,29.69
2018-06-05T14:48:42.088Z,29.00
2018-06-05T14:51:12.060Z,28.68
2018-06-05T14:53:41.880Z,29.03
2018-06-05T14:56:11.738Z,28.85
2018-06-05T14:58:43.065Z,28.51
2018-06-05T15:01:13.160Z,28.61
2018-06-05T15:03:43.087Z,28.99
2018-06-05T15:06:12.832Z,29.32
2018-06-05T15:08:42.664Z,29.64
2018-06-05T15:11:12.628Z,29.48
2018-06-05T15:13:42.359Z,29.08
2018-06-05T15:16:12.362Z,28.75
2018-06-05T15:18:42.173Z,28.86
2018-06-05T15:21:12.220Z,29.31
2018-06-05T15:23:42.233Z,29.39
2018-06-05T15:26:12.124Z,28.86
2018-06-05T15:28:42.201Z,29.15
2018-06-05T15:31:13.186Z,28.64
2018-06-05T15:33:43.163Z,28.87
2018-06-05T15:36:13.125Z,29.49
2018-06-05T15:38:43.245Z,29.96
2018-06-05T15:41:13.056Z,30.26
2018-06-05T15:43:44.119Z,30.38
2018-06-05T15:46:14.160Z,30.57
2018-06-05T15:48:44.041Z,30.60
2018-06-05T15:51:13.923Z,30.41
2018-06-05T15:53:43.813Z,30.71
2018-06-05T15:56:13.824Z,31.15
2018-06-05T15:58:44.118Z,31.58
2018-06-05T16:01:13.963Z,31.54
2018-06-05T16:03:43.814Z,31.76
2018-06-05T16:06:13.564Z,32.13
2018-06-05T16:08:43.296Z,32.54
2018-06-05T16:11:13.136Z,32.35
2018-06-05T16:13:43.969Z,32.49
2018-06-05T16:16:13.938Z,33.06
2018-06-05T16:18:43.924Z,33.21
2018-06-05T16:21:13.900Z,33.34
2018-06-05T16:23:43.721Z,33.51
2018-06-05T16:26:14.693Z,33.40
2018-06-05T16:28:44.509Z,33.27
2018-06-05T16:31:14.316Z,33.44
2018-06-05T16:33:44.185Z,33.56
2018-06-05T16:36:14.239Z,33.55
2018-06-05T16:38:43.976Z,33.40
2018-06-05T16:41:13.852Z,33.32
2018-06-05T16:43:43.778Z,33.40
2018-06-05T16:46:13.429Z,33.58
2018-06-05T16:48:43.257Z,33.54
2018-06-05T16:51:13.324Z,33.27
2018-06-05T16:56:37.755Z,32.21
2018-06-05T16:59:07.808Z,31.54
2018-06-05T17:01:37.665Z,30.88
2018-06-05T17:04:07.708Z,30.46
2018-06-05T17:06:37.509Z,30.40
2018-06-05T17:09:08.780Z,30.37
2018-06-05T17:11:38.749Z,30.58
2018-06-05T17:14:09.330Z,30.67
2018-06-05T17:16:39.029Z,30.25
2018-06-05T17:19:08.950Z,29.77
2018-06-05T17:21:38.885Z,29.47
2018-06-05T17:24:08.603Z,29.13
2018-06-05T17:26:38.992Z,28.70
2018-06-05T17:29:08.936Z,28.31
2018-06-05T17:31:38.884Z,27.95
2018-06-05T17:34:08.796Z,27.76
2018-06-05T17:36:38.446Z,27.64
2018-06-05T17:39:09.860Z,27.57
2018-06-05T17:41:39.798Z,27.45
2018-06-05T17:44:09.709Z,27.36
2018-06-05T17:46:39.628Z,27.26
2018-06-05T17:49:09.844Z,27.09
2018-06-05T17:51:40.067Z,26.98
2018-06-05T17:54:09.744Z,26.92
2018-06-05T17:56:39.665Z,26.92
2018-06-05T17:59:09.607Z,26.74
2018-06-05T18:01:39.457Z,26.60
2018-06-05T18:04:09.440Z,26.45
2018-06-05T18:06:39.460Z,26.34
2018-06-05T18:09:09.859Z,26.11
2018-06-05T18:11:39.454Z,25.86
2018-06-05T18:14:09.401Z,25.65
2018-06-05T18:16:39.202Z,25.46
2018-06-05T18:19:09.401Z,25.16
2018-06-05T18:21:40.491Z,24.88
2018-06-05T18:24:10.485Z,24.63
2018-06-05T18:26:40.346Z,24.29
2018-06-05T18:29:10.462Z,24.06
2018-06-05T18:31:40.493Z,23.78
2018-06-05T18:34:10.445Z,23.50
2018-06-05T18:36:40.281Z,23.32
2018-06-05T18:39:12.631Z,23.18
2018-06-05T18:41:42.419Z,23.01
2018-06-05T18:44:12.255Z,22.89
2018-06-05T18:46:42.224Z,22.76
2018-06-05T18:49:12.284Z,22.60
2018-06-05T18:51:42.092Z,22.46
2018-06-05T18:54:11.984Z,22.35
2018-06-05T18:56:41.956Z,22.24
2018-06-05T18:59:12.136Z,22.19
2018-06-05T19:01:42.108Z,22.10
2018-06-05T19:04:11.976Z,22.03
2018-06-05T19:06:41.707Z,21.98
2018-06-05T19:09:11.807Z,21.94
2018-06-05T19:11:41.559Z,21.82
2018-06-05T19:14:11.501Z,21.74
2018-06-05T19:16:41.391Z,21.68
2018-06-05T19:19:11.195Z,21.63
2018-06-05T19:21:41.257Z,21.56
2018-06-05T19:24:11.255Z,21.51
2018-06-05T19:26:41.154Z,21.44
2018-06-05T19:29:10.930Z,21.42
2018-06-05T19:31:40.778Z,21.40
2018-06-05T19:34:10.789Z,21.36
2018-06-05T19:36:40.750Z,21.31
2018-06-05T19:39:10.954Z,21.31
2018-06-05T19:41:41.028Z,21.32
2018-06-05T19:44:10.960Z,21.34
2018-06-05T19:46:41.027Z,21.38
2018-06-05T19:49:10.657Z,21.37
2018-06-05T19:51:40.636Z,21.36
2018-06-05T19:54:11.873Z,21.35
2018-06-05T19:56:41.792Z,21.32
2018-06-05T19:59:11.695Z,21.32
2018-06-05T20:01:42.119Z,21.30
2018-06-05T20:04:11.975Z,21.26
2018-06-05T20:06:41.773Z,21.18
2018-06-05T20:09:11.759Z,21.12
2018-06-05T20:11:41.792Z,21.04
2018-06-05T20:14:11.579Z,20.97
2018-06-05T20:16:41.641Z,20.87
2018-06-05T20:19:11.365Z,20.80
2018-06-05T20:21:41.301Z,20.74
2018-06-05T20:24:11.352Z,20.70
2018-06-05T20:26:41.337Z,20.66
2018-06-05T20:29:11.247Z,20.64
2018-06-05T20:31:41.208Z,20.61
2018-06-05T20:34:10.922Z,20.57
2018-06-05T20:36:40.904Z,20.54
2018-06-05T20:39:14.355Z,20.53
2018-06-05T20:41:45.282Z,20.49
2018-06-05T20:44:15.094Z,20.47
2018-06-05T20:46:44.763Z,20.41
2018-06-05T20:49:14.736Z,20.43
2018-06-05T20:51:44.703Z,20.38
2018-06-05T20:54:14.687Z,20.35
2018-06-05T20:56:44.416Z,20.26
2018-06-05T20:59:14.255Z,20.14
2018-06-05T21:01:44.204Z,19.94
2018-06-05T21:04:14.171Z,19.72
2018-06-05T21:06:43.924Z,19.61
2018-06-05T21:09:13.745Z,19.57
2018-06-05T21:11:43.562Z,19.52
2018-06-05T21:14:13.376Z,19.40
2018-06-05T21:16:43.321Z,19.33
2018-06-05T21:19:13.308Z,19.21
2018-06-05T21:21:42.984Z,19.07
2018-06-05T21:24:12.931Z,19.00
2018-06-05T21:26:42.588Z,18.97
2018-06-05T21:29:12.668Z,19.03
2018-06-05T21:31:42.801Z,19.06
2018-06-05T21:34:12.750Z,19.07
2018-06-05T21:36:42.539Z,19.10
2018-06-05T21:39:12.407Z,19.08
2018-06-05T21:41:42.249Z,19.05
2018-06-05T21:44:12.892Z,19.03
2018-06-05T21:46:42.748Z,19.02
2018-06-05T21:49:12.655Z,19.04
2018-06-05T21:51:42.493Z,19.06
2018-06-05T21:54:12.844Z,19.03
2018-06-05T21:56:42.658Z,18.98
2018-06-05T21:59:12.462Z,18.92
2018-06-05T22:01:42.591Z,18.86
2018-06-05T22:04:12.238Z,18.80
2018-06-05T22:06:41.918Z,18.76
2018-06-05T22:09:11.880Z,18.74
2018-06-05T22:11:42.448Z,18.69
2018-06-05T22:14:12.005Z,18.65
2018-06-05T22:16:41.926Z,18.59
2018-06-05T22:19:11.679Z,18.54
2018-06-05T22:21:41.465Z,18.43
2018-06-05T22:24:11.521Z,18.33
2018-06-05T22:26:41.998Z,18.22
2018-06-05T22:29:12.039Z,18.13
2018-06-05T22:31:41.983Z,18.06
2018-06-05T22:34:11.791Z,17.94
2018-06-05T22:36:41.630Z,17.84
2018-06-05T22:39:12.043Z,17.75
2018-06-05T22:41:41.760Z,17.65
2018-06-05T22:44:12.604Z,17.57
2018-06-05T22:46:42.452Z,17.52
2018-06-05T22:49:12.247Z,17.48
2018-06-05T22:51:42.088Z,17.35
2018-06-05T22:54:11.648Z,17.30
2018-06-05T22:56:41.257Z,17.19
2018-06-05T22:59:11.068Z,17.11
2018-06-05T23:01:40.908Z,16.99
2018-06-05T23:04:10.443Z,16.94
2018-06-05T23:06:40.482Z,16.88
2018-06-05T23:09:10.591Z,16.84
2018-06-05T23:12:07.091Z,16.78
2018-06-05T23:15:00.765Z,16.68
2018-06-05T23:17:33.824Z,16.59
2018-06-05T23:20:03.585Z,16.54
2018-06-05T23:22:40.074Z,16.50
2018-06-05T23:25:10.047Z,16.45
2018-06-05T23:27:40.970Z,16.39
2018-06-05T23:30:11.066Z,16.27
2018-06-05T23:32:40.743Z,16.15
2018-06-05T23:35:10.550Z,16.02
2018-06-05T23:37:40.464Z,15.94
2018-06-05T23:40:10.333Z,15.86
2018-06-05T23:42:40.116Z,15.76
2018-06-05T23:45:09.926Z,15.67
2018-06-05T23:47:39.624Z,15.61
2018-06-05T23:50:09.070Z,15.55
2018-06-05T23:52:39.037Z,15.49
2018-06-05T23:55:08.649Z,15.43
2018-06-05T23:57:38.520Z,15.38
